createdAt,value
2023-01-09T00:02:26.466Z,44.00
2023-01-09T00:07:46.565Z,44.00
2023-01-09T00:13:06.769Z,44.00
2023-01-09T00:18:26.871Z,43.90
2023-01-09T00:23:47.090Z,43.90
2023-01-09T00:29:07.275Z,44.00
2023-01-09T00:34:27.567Z,44.00
2023-01-09T00:39:47.608Z,44.00
2023-01-09T00:45:07.832Z,44.10
2023-01-09T00:50:27.950Z,44.00
2023-01-09T00:55:48.172Z,44.00
2023-01-09T01:01:08.413Z,44.10
2023-01-09T01:06:28.520Z,44.10
2023-01-09T01:11:48.678Z,44.20
2023-01-09T01:17:08.837Z,44.20
2023-01-09T01:22:28.881Z,44.20
2023-01-09T01:27:49.192Z,44.10
2023-01-09T01:33:09.251Z,44.20
2023-01-09T01:38:29.433Z,44.20
2023-01-09T01:43:49.585Z,44.20
2023-01-09T01:49:09.813Z,44.00
2023-01-09T01:54:29.890Z,43.90
2023-01-09T01:59:50.316Z,44.00
2023-01-09T02:05:10.404Z,43.90
2023-01-09T02:10:30.536Z,43.90
2023-01-09T02:15:50.657Z,43.80
2023-01-09T02:21:10.742Z,43.90
2023-01-09T02:26:30.931Z,43.90
2023-01-09T02:31:51.069Z,44.00
2023-01-09T02:37:11.190Z,43.90
2023-01-09T02:42:31.264Z,44.20
2023-01-09T02:47:51.420Z,44.00
2023-01-09T02:53:11.609Z,44.00
2023-01-09T02:58:31.746Z,44.00
2023-01-09T03:03:51.942Z,44.10
2023-01-09T03:09:12.142Z,44.10
2023-01-09T03:14:32.212Z,44.00
2023-01-09T03:19:52.293Z,44.10
2023-01-09T03:25:12.554Z,44.10
2023-01-09T03:30:32.687Z,44.10
2023-01-09T03:35:52.903Z,44.10
2023-01-09T03:41:13.109Z,44.00
2023-01-09T03:46:33.126Z,44.00
2023-01-09T03:51:53.401Z,43.90
2023-01-09T03:57:13.523Z,43.90
2023-01-09T04:02:33.686Z,43.90
2023-01-09T04:07:53.836Z,43.90
2023-01-09T04:13:14.085Z,43.90
2023-01-09T04:18:34.172Z,43.90
2023-01-09T04:23:54.345Z,44.00
2023-01-09T04:29:14.457Z,44.00
2023-01-09T04:34:34.648Z,44.00
2023-01-09T04:39:54.785Z,44.00
2023-01-09T04:45:14.926Z,44.00
2023-01-09T04:50:35.054Z,44.00
2023-01-09T04:55:55.289Z,44.00
2023-01-09T05:01:15.644Z,44.00
2023-01-09T05:06:35.756Z,44.20
2023-01-09T05:11:55.842Z,44.10
2023-01-09T05:17:16.099Z,44.00
2023-01-09T05:22:36.340Z,43.90
2023-01-09T05:27:56.441Z,43.80
2023-01-09T05:33:16.521Z,43.80
2023-01-09T05:38:36.571Z,43.70
2023-01-09T05:43:56.677Z,43.60
2023-01-09T05:49:16.767Z,43.60
2023-01-09T05:54:37.041Z,43.70
2023-01-09T05:59:57.301Z,43.70
2023-01-09T06:05:17.443Z,43.70
2023-01-09T06:10:37.654Z,43.80
2023-01-09T06:15:57.883Z,43.80
2023-01-09T06:21:18.059Z,43.90
2023-01-09T06:26:38.205Z,43.90
2023-01-09T06:31:58.323Z,43.80
2023-01-09T06:37:18.462Z,43.90
2023-01-09T06:42:38.697Z,43.90
2023-01-09T06:47:59.330Z,43.90
2023-01-09T06:53:19.481Z,43.90
2023-01-09T06:58:39.613Z,44.00
2023-01-09T07:03:59.951Z,44.00
2023-01-09T07:09:19.981Z,43.90
2023-01-09T07:14:40.345Z,43.90
2023-01-09T07:20:00.399Z,43.80
2023-01-09T07:25:20.624Z,43.70
2023-01-09T07:30:40.685Z,43.60
2023-01-09T07:36:00.815Z,43.60
2023-01-09T07:41:20.948Z,43.60
2023-01-09T07:46:41.110Z,43.60
2023-01-09T07:52:01.218Z,43.60
2023-01-09T07:57:21.195Z,43.60
2023-01-09T08:02:41.383Z,43.60
2023-01-09T08:08:01.450Z,43.70
2023-01-09T08:13:21.739Z,43.70
2023-01-09T08:18:42.228Z,43.80
2023-01-09T08:24:02.495Z,43.80
2023-01-09T08:29:22.681Z,43.80
2023-01-09T08:34:42.866Z,43.80
2023-01-09T08:40:03.200Z,43.90
2023-01-09T08:45:23.372Z,43.80
2023-01-09T08:50:43.498Z,43.90
2023-01-09T08:56:03.607Z,44.00
2023-01-09T09:01:23.852Z,43.90
2023-01-09T09:06:44.131Z,43.80
2023-01-09T09:12:04.338Z,43.70
2023-01-09T09:17:24.559Z,43.60
2023-01-09T09:22:44.701Z,43.60
2023-01-09T09:28:04.843Z,43.50
2023-01-09T09:33:25.128Z,43.50
2023-01-09T09:38:45.237Z,43.50
2023-01-09T09:44:05.303Z,43.50
2023-01-09T09:49:25.487Z,43.60
2023-01-09T09:54:45.750Z,43.60
2023-01-09T10:00:05.819Z,43.60
2023-01-09T10:05:25.909Z,43.60
2023-01-09T10:10:46.173Z,43.70
2023-01-09T10:16:06.364Z,43.70
2023-01-09T10:21:26.660Z,43.80
2023-01-09T10:26:46.813Z,43.90
2023-01-09T10:32:06.972Z,44.80
2023-01-09T10:37:27.161Z,45.10
2023-01-09T10:42:47.446Z,44.70
2023-01-09T10:48:07.502Z,44.50
2023-01-09T10:53:27.772Z,44.40
2023-01-09T10:58:47.905Z,44.30
2023-01-09T11:04:08.965Z,44.20
2023-01-09T11:09:29.238Z,44.20
2023-01-09T11:14:49.484Z,44.10
2023-01-09T11:20:09.625Z,44.10
2023-01-09T11:25:29.738Z,44.00
2023-01-09T11:30:49.821Z,43.90
2023-01-09T11:36:10.298Z,43.90
2023-01-09T11:41:30.484Z,43.90
2023-01-09T11:46:50.644Z,43.80
2023-01-09T11:52:10.786Z,43.80
2023-01-09T11:57:30.979Z,43.70
2023-01-09T12:02:53.344Z,43.80
2023-01-09T12:08:13.842Z,43.80
2023-01-09T12:13:33.970Z,43.70
2023-01-09T12:18:54.232Z,43.80
2023-01-09T12:24:14.468Z,43.70
2023-01-09T12:29:34.694Z,43.70
2023-01-09T12:34:54.875Z,43.70
2023-01-09T12:40:15.096Z,43.60
2023-01-09T12:45:35.194Z,43.60
2023-01-09T12:50:55.333Z,43.60
2023-01-09T12:56:15.528Z,43.60
2023-01-09T13:01:35.680Z,43.60
2023-01-09T13:06:55.804Z,43.50
2023-01-09T13:12:16.063Z,43.50
2023-01-09T13:17:36.258Z,43.60
2023-01-09T13:22:56.403Z,43.40
2023-01-09T13:28:16.559Z,43.30
2023-01-09T13:33:36.666Z,43.40
2023-01-09T13:38:56.816Z,43.40
2023-01-09T13:44:16.970Z,43.40
2023-01-09T13:49:37.033Z,43.50
2023-01-09T13:54:57.315Z,43.40
2023-01-09T14:00:17.681Z,43.50
2023-01-09T14:05:37.933Z,43.60
2023-01-09T14:10:58.050Z,43.60
2023-01-09T14:16:18.158Z,43.60
2023-01-09T14:21:39.817Z,43.60
2023-01-09T14:26:59.751Z,43.80
2023-01-09T14:32:19.905Z,43.80
2023-01-09T14:37:41.054Z,43.80
2023-01-09T14:43:01.059Z,43.80
2023-01-09T14:48:21.269Z,43.80
2023-01-09T14:53:41.384Z,43.80
2023-01-09T14:59:01.640Z,43.80
2023-01-09T15:04:21.708Z,43.80
2023-01-09T15:09:41.796Z,43.80
2023-01-09T15:15:01.884Z,43.90
2023-01-09T15:20:21.994Z,43.90
2023-01-09T15:25:42.095Z,43.90
2023-01-09T15:31:02.277Z,43.90
2023-01-09T15:36:22.413Z,43.90
2023-01-09T15:41:42.523Z,43.90
2023-01-09T15:47:02.553Z,43.90
2023-01-09T15:52:22.643Z,43.90
2023-01-09T15:57:42.713Z,43.90
2023-01-09T16:03:02.798Z,43.90
2023-01-09T16:08:22.821Z,43.90
2023-01-09T16:13:43.298Z,43.90
2023-01-09T16:19:03.436Z,43.90
2023-01-09T16:24:23.618Z,43.90
2023-01-09T16:29:44.778Z,43.90
2023-01-09T16:35:05.716Z,43.90
2023-01-09T16:40:26.144Z,43.90
2023-01-09T16:45:46.281Z,43.90
2023-01-09T16:51:06.324Z,43.90
2023-01-09T16:56:26.513Z,43.90
2023-01-09T17:01:46.569Z,43.90
2023-01-09T17:07:06.803Z,43.90
2023-01-09T17:12:26.822Z,43.90
2023-01-09T17:17:47.371Z,43.90
2023-01-09T17:23:07.565Z,43.90
2023-01-09T17:28:27.723Z,43.80
2023-01-09T17:33:47.815Z,43.80
2023-01-09T17:39:08.095Z,43.70
2023-01-09T17:44:28.110Z,43.70
2023-01-09T17:49:48.223Z,43.70
2023-01-09T17:55:08.561Z,43.80
2023-01-09T18:00:28.692Z,43.60
2023-01-09T18:05:48.827Z,43.60
2023-01-09T18:11:09.170Z,43.60
2023-01-09T18:16:29.383Z,43.60
2023-01-09T18:21:49.554Z,44.30
2023-01-09T18:27:09.604Z,43.60
2023-01-09T18:32:29.887Z,43.60
2023-01-09T18:37:49.970Z,43.60
2023-01-09T18:43:10.139Z,43.60
2023-01-09T18:48:30.229Z,43.60
2023-01-09T18:53:50.526Z,43.90
2023-01-09T18:59:10.654Z,44.60
2023-01-09T19:04:30.649Z,44.50
2023-01-09T19:09:50.770Z,44.70
2023-01-09T19:15:10.894Z,44.80
2023-01-09T19:20:30.920Z,45.10
2023-01-09T19:25:51.015Z,45.00
2023-01-09T19:31:11.225Z,44.80
2023-01-09T19:36:31.521Z,44.80
2023-01-09T19:41:51.598Z,44.80
2023-01-09T19:47:12.627Z,44.60
2023-01-09T19:52:32.707Z,44.60
2023-01-09T19:57:53.645Z,44.50
2023-01-09T20:03:13.773Z,44.50
2023-01-09T20:08:33.962Z,44.40
2023-01-09T20:13:54.025Z,44.30
2023-01-09T20:19:14.274Z,44.20
2023-01-09T20:24:34.381Z,44.20
2023-01-09T20:29:54.684Z,44.20
2023-01-09T20:35:14.846Z,44.10
2023-01-09T20:40:35.201Z,44.00
2023-01-09T20:45:55.538Z,44.00
2023-01-09T20:51:15.460Z,44.00
2023-01-09T20:56:35.587Z,43.80
2023-01-09T21:01:55.730Z,43.90
2023-01-09T21:07:16.682Z,43.80
2023-01-09T21:12:36.714Z,43.80
2023-01-09T21:17:56.889Z,43.60
2023-01-09T21:23:16.942Z,43.40
2023-01-09T21:28:36.983Z,43.30
2023-01-09T21:33:57.476Z,43.40
2023-01-09T21:39:17.706Z,43.20
2023-01-09T21:44:37.958Z,43.20
2023-01-09T21:49:58.197Z,43.20
2023-01-09T21:55:18.256Z,43.20
2023-01-09T22:00:38.375Z,43.30
2023-01-09T22:05:58.500Z,43.30
2023-01-09T22:11:18.892Z,43.30
2023-01-09T22:16:38.743Z,43.30
2023-01-09T22:21:58.766Z,43.20
2023-01-09T22:27:18.791Z,43.30
2023-01-09T22:32:39.049Z,43.30
2023-01-09T22:37:59.103Z,43.40
2023-01-09T22:43:19.189Z,43.40
2023-01-09T22:48:39.354Z,43.30
2023-01-09T22:53:59.521Z,43.20
2023-01-09T22:59:19.601Z,43.20
2023-01-09T23:04:39.838Z,43.30
2023-01-09T23:09:59.964Z,43.30
2023-01-09T23:15:20.673Z,43.20
2023-01-09T23:20:40.895Z,43.20
2023-01-09T23:26:01.140Z,43.20
2023-01-09T23:31:21.874Z,43.20
2023-01-09T23:36:42.087Z,43.20
2023-01-09T23:42:02.064Z,43.20
2023-01-09T23:47:22.276Z,43.20
2023-01-09T23:52:42.299Z,43.10
2023-01-09T23:58:02.405Z,43.10
